BIKJ weather

Kroksfjard-Arnes Airport
Kroksfjard-arnes, Westfjords, Iceland

Public forecast

Using degrees Celsius for public forecast. Weather courtesy of forecast.io.

Closest aviation weather report (METAR) to Kroksfjard-Arnes Airport

Closest report is Bildudalur Airport, 41.0 nm (76.0 km) WNW. Retrieved 2019/10/16 10:00 UTC (50 minutes ago):

BIBD 161000Z 05011KT 9999 BKN045 11/04 Q1002

Closest aviation forecast (TAF) to Kroksfjard-Arnes Airport

Closest forecast is Reykjavik Airport, 80.3 nm (148.7 km) S. Retrieved 2019/10/16 09:03 UTC (2 hours ago):

TAF BIRK 160759Z 1609/1709 07020G30KT 9999 BKN050 TX12/1612Z TN03/1707Z BECMG 1610/1612 07015KT BECMG 1618/1620 03005KT